Time;durP1;ratioP1;P1;durP2;ratioP2;P2;SDS_P1;SDS_P2;PMS_P1;PMS_P2;Temp;Humidity;BMP_temperature;BMP_pressure;BME280_temperature;BME280_humidity;BME280_pressure;Samples;Min_cycle;Max_cycle;Signal;HPM_P1;HPM_P2
2022/09/01 00:01:13;;;;;;;5.30;2.30;;;;;;;16.80;50.26;101979.38;5102585;28;20040;-57
2022/09/01 00:03:39;;;;;;;5.85;2.22;;;;;;;16.75;50.65;101974.56;5106112;28;20398;-57
2022/09/01 00:06:09;;;;;;;6.15;2.40;;;;;;;16.71;50.75;101973.22;5105844;28;20027;-57
2022/09/01 00:08:34;;;;;;;4.85;2.28;;;;;;;16.69;52.24;101969.91;5106544;28;20035;-59
2022/09/01 00:11:00;;;;;;;4.95;2.10;;;;;;;16.73;51.30;101968.50;5099381;28;20085;-57
2022/09/01 00:13:25;;;;;;;4.72;2.20;;;;;;;16.76;51.12;101962.81;5097812;28;20119;-58
2022/09/01 00:15:50;;;;;;;4.30;2.25;;;;;;;16.75;51.58;101966.50;5103733;28;20028;-58
2022/09/01 00:18:15;;;;;;;4.03;2.25;;;;;;;16.70;51.91;101966.19;5097213;28;20042;-57
2022/09/01 00:20:41;;;;;;;2.63;2.15;;;;;;;16.68;51.77;101968.22;5102177;28;20488;-56
2022/09/01 00:23:06;;;;;;;3.78;2.00;;;;;;;16.63;52.33;101959.88;5101754;28;20023;-56
2022/09/01 00:25:31;;;;;;;5.28;2.00;;;;;;;16.55;53.05;101963.41;5106313;28;20032;-57
2022/09/01 00:27:59;;;;;;;7.00;2.22;;;;;;;16.44;53.24;101964.66;5102899;28;20026;-57
2022/09/01 00:30:25;;;;;;;4.22;2.22;;;;;;;16.50;53.29;101969.31;5103881;28;20024;-57
2022/09/01 00:32:50;;;;;;;3.55;2.03;;;;;;;16.50;53.77;101971.97;5105200;28;20032;-58
2022/09/01 00:35:17;;;;;;;2.95;2.15;;;;;;;16.56;53.66;101972.28;5106128;28;20043;-57
2022/09/01 00:37:43;;;;;;;6.15;2.20;;;;;;;16.51;53.71;101972.81;5105539;28;20039;-57
2022/09/01 00:40:10;;;;;;;6.22;2.35;;;;;;;16.43;54.94;101965.63;5104968;28;20027;-56
2022/09/01 00:42:37;;;;;;;4.35;2.10;;;;;;;16.43;55.54;101970.16;5105426;28;20031;-56
2022/09/01 00:45:03;;;;;;;3.78;2.20;;;;;;;16.44;54.91;101972.69;5097741;28;20027;-56
2022/09/01 00:47:29;;;;;;;3.50;2.20;;;;;;;16.43;54.90;101968.31;5096817;28;20071;-58
2022/09/01 00:49:54;;;;;;;3.58;2.30;;;;;;;16.41;55.33;101967.66;5104230;28;20128;-57
2022/09/01 00:52:29;;;;;;;3.53;2.30;;;;;;;16.40;56.06;101969.47;5099762;28;20035;-57
2022/09/01 00:55:01;;;;;;;3.80;2.30;;;;;;;16.26;56.03;101965.69;5095281;28;20090;-57
2022/09/01 00:57:27;;;;;;;2.40;2.20;;;;;;;16.38;55.89;101965.34;5104747;28;20032;-57
2022/09/01 01:00:03;;;;;;;4.70;2.03;;;;;;;16.37;56.19;101961.81;5096606;28;20020;-57
2022/09/01 01:02:28;;;;;;;5.68;2.40;;;;;;;16.35;56.69;101963.00;5101055;28;20039;-56
2022/09/01 01:04:54;;;;;;;3.40;2.30;;;;;;;16.25;56.71;101969.38;5094287;28;20026;-58
2022/09/01 01:07:21;;;;;;;4.15;2.20;;;;;;;16.27;57.66;101956.66;5099304;28;20027;-58
2022/09/01 01:09:47;;;;;;;2.80;2.25;;;;;;;16.33;57.07;101965.00;5104265;28;20026;-59
2022/09/01 01:12:17;;;;;;;5.63;2.53;;;;;;;16.24;57.06;101962.34;5104382;28;20031;-57
2022/09/01 01:14:44;;;;;;;3.83;2.22;;;;;;;16.22;58.28;101959.00;5102233;28;20110;-58
2022/09/01 01:17:10;;;;;;;5.22;2.30;;;;;;;16.21;57.68;101957.34;5099592;28;20027;-57
2022/09/01 01:23:07;;;;;;;5.07;2.60;;;;;;;16.24;57.13;101962.34;5103262;28;20505;-57
2022/09/01 01:25:40;;;;;;;5.68;2.30;;;;;;;16.14;58.11;101951.84;5095392;28;20043;-58
2022/09/01 01:28:16;;;;;;;5.55;2.33;;;;;;;16.09;58.37;101961.41;5100742;28;20023;-57
2022/09/01 01:30:51;;;;;;;3.20;2.58;;;;;;;15.92;58.90;101956.06;5099273;28;20055;-57
2022/09/01 01:33:22;;;;;;;2.97;2.42;;;;;;;15.98;58.82;101951.88;5104341;28;20035;-56
2022/09/01 01:35:50;;;;;;;3.08;2.42;;;;;;;15.96;59.42;101954.75;5104000;28;20027;-56
2022/09/01 01:38:16;;;;;;;3.85;2.47;;;;;;;15.95;59.62;101953.06;5103826;28;20113;-57
2022/09/01 01:40:41;;;;;;;3.03;2.55;;;;;;;15.89;59.39;101959.03;5085101;28;20043;-57
2022/09/01 01:43:07;;;;;;;3.25;2.35;;;;;;;15.86;59.43;101956.72;5101073;28;20047;-57
2022/09/01 01:45:34;;;;;;;4.07;2.60;;;;;;;15.81;60.23;101953.72;5090220;28;20476;-58
2022/09/01 01:47:59;;;;;;;5.35;2.85;;;;;;;15.82;59.80;101963.41;5099517;28;20035;-57
2022/09/01 01:50:32;;;;;;;3.85;2.55;;;;;;;15.77;60.20;101960.41;5097621;28;20024;-57
2022/09/01 01:53:01;;;;;;;5.30;2.53;;;;;;;15.78;60.29;101957.56;5099035;28;20092;-58
2022/09/01 01:55:27;;;;;;;6.47;2.72;;;;;;;15.74;60.33;101962.41;5095508;28;20506;-57
2022/09/01 01:57:55;;;;;;;4.53;2.40;;;;;;;15.78;60.26;101972.78;5091484;28;20476;-58
2022/09/01 02:00:25;;;;;;;8.05;2.90;;;;;;;15.71;60.32;101968.13;5100202;28;20063;-58
2022/09/01 02:02:51;;;;;;;5.75;2.60;;;;;;;15.67;60.83;101958.75;5102462;28;20024;-56
2022/09/01 02:05:30;;;;;;;3.88;2.33;;;;;;;15.70;61.01;101965.59;5104076;28;20031;-58
2022/09/01 02:08:03;;;;;;;6.28;2.80;;;;;;;15.66;60.68;101964.25;5099247;28;20031;-58
2022/09/01 02:10:35;;;;;;;6.05;2.80;;;;;;;15.66;60.96;101958.91;5096836;28;20085;-57
2022/09/01 02:13:04;;;;;;;3.75;2.70;;;;;;;15.66;60.93;101970.44;5098678;28;20114;-57
2022/09/01 02:15:38;;;;;;;2.88;2.60;;;;;;;15.63;61.01;101962.75;5099457;28;20110;-57
2022/09/01 02:18:04;;;;;;;3.33;2.75;;;;;;;15.55;60.87;101958.22;5089952;28;20031;-56
2022/09/01 02:20:32;;;;;;;4.15;2.70;;;;;;;15.55;61.15;101968.09;5101816;28;20076;-58
2022/09/01 02:23:08;;;;;;;4.25;2.70;;;;;;;15.53;61.20;101970.09;5100171;28;20023;-57
2022/09/01 02:25:34;;;;;;;5.93;2.83;;;;;;;15.51;61.47;101967.59;5100730;28;20045;-57
2022/09/01 02:28:02;;;;;;;4.38;2.85;;;;;;;15.51;61.38;101961.41;5101764;28;20055;-57
2022/09/01 02:30:31;;;;;;;4.35;2.92;;;;;;;15.53;61.36;101965.59;5104042;28;20541;-56
2022/09/01 02:32:57;;;;;;;4.45;2.78;;;;;;;15.50;61.79;101962.41;5092391;28;20031;-58
2022/09/01 02:35:27;;;;;;;4.28;2.85;;;;;;;15.42;61.67;101964.09;5105593;28;20040;-57
2022/09/01 02:37:55;;;;;;;4.90;2.95;;;;;;;15.40;61.51;101959.91;5081553;28;20031;-57
2022/09/01 02:40:20;;;;;;;4.88;2.75;;;;;;;15.36;62.08;101964.75;5089778;28;20031;-58
2022/09/01 02:42:46;;;;;;;3.88;2.67;;;;;;;15.35;62.11;101962.25;5107556;28;20035;-57
2022/09/01 02:45:14;;;;;;;4.88;2.70;;;;;;;15.30;62.57;101968.09;5107992;28;20447;-59
2022/09/01 02:47:40;;;;;;;4.45;2.92;;;;;;;15.28;61.91;101956.72;5100821;28;20051;-57
2022/09/01 02:50:12;;;;;;;5.47;3.03;;;;;;;15.27;62.19;101960.41;5096548;28;20051;-56
2022/09/01 02:52:39;;;;;;;4.30;3.10;;;;;;;15.25;62.52;101951.72;5095385;28;20035;-57
2022/09/01 02:55:06;;;;;;;6.47;2.90;;;;;;;15.22;62.49;101952.88;5105935;28;20066;-56
2022/09/01 02:57:33;;;;;;;3.60;3.00;;;;;;;15.15;62.42;101944.69;5108080;28;20118;-56
2022/09/01 02:59:59;;;;;;;4.72;2.92;;;;;;;15.17;62.47;101945.38;5107549;28;20038;-57
2022/09/01 03:02:27;;;;;;;4.65;3.00;;;;;;;15.15;62.76;101947.34;5099500;28;20655;-59
2022/09/01 03:04:54;;;;;;;3.47;2.90;;;;;;;15.12;63.00;101947.69;5106715;28;20032;-56
2022/09/01 03:07:24;;;;;;;7.05;2.83;;;;;;;15.05;63.31;101941.34;5107860;28;20029;-56
2022/09/01 03:09:51;;;;;;;4.15;2.83;;;;;;;15.10;62.95;101943.50;5106985;28;20028;-58
2022/09/01 03:12:16;;;;;;;5.47;3.30;;;;;;;15.05;62.90;101936.00;5105164;28;20023;-58
2022/09/01 03:14:42;;;;;;;3.63;3.00;;;;;;;15.04;63.66;101945.00;5105347;28;20085;-56
2022/09/01 03:17:07;;;;;;;6.18;2.90;;;;;;;15.05;63.06;101944.84;5107284;28;20032;-57
2022/09/01 03:19:43;;;;;;;4.30;3.00;;;;;;;15.02;63.52;101947.00;5101413;28;20031;-56
2022/09/01 03:22:08;;;;;;;5.90;3.20;;;;;;;15.01;63.02;101940.00;5095693;28;20480;-57
2022/09/01 03:24:34;;;;;;;5.45;3.10;;;;;;;14.95;63.16;101951.34;5101938;28;20038;-57
2022/09/01 03:26:59;;;;;;;5.00;3.08;;;;;;;14.99;63.32;101952.69;5107306;28;20443;-56
2022/09/01 03:29:25;;;;;;;4.18;2.97;;;;;;;14.93;63.43;101949.66;5107142;28;20035;-58
2022/09/01 03:31:50;;;;;;;6.90;3.30;;;;;;;14.92;63.24;101949.81;5104920;28;20445;-56
2022/09/01 03:34:19;;;;;;;5.68;3.10;;;;;;;14.88;63.56;101951.97;5104739;28;20024;-57
2022/09/01 03:36:48;;;;;;;5.55;3.22;;;;;;;14.80;63.77;101946.59;5106149;28;20502;-57
2022/09/01 03:39:15;;;;;;;3.63;3.10;;;;;;;14.77;63.89;101945.09;5099086;28;20084;-56
2022/09/01 03:41:40;;;;;;;4.93;3.38;;;;;;;14.79;64.21;101947.59;5106485;28;20023;-57
2022/09/01 03:44:06;;;;;;;6.85;3.10;;;;;;;14.80;64.07;101941.25;5103326;28;20050;-57
2022/09/01 03:46:31;;;;;;;5.50;3.33;;;;;;;14.70;64.30;101943.22;5105411;28;20077;-58
2022/09/01 03:49:00;;;;;;;6.28;3.00;;;;;;;14.77;64.30;101938.94;5099266;28;20415;-58
2022/09/01 03:51:27;;;;;;;4.85;2.90;;;;;;;14.74;64.22;101944.53;5104634;28;20107;-56
2022/09/01 03:53:53;;;;;;;6.07;3.30;;;;;;;14.71;64.57;101944.88;5106576;28;20408;-56
2022/09/01 03:56:20;;;;;;;4.35;3.00;;;;;;;14.72;64.57;101943.88;5105685;28;20030;-58
2022/09/01 03:58:46;;;;;;;4.78;3.03;;;;;;;14.69;64.71;101946.91;5101375;28;20067;-57
2022/09/01 04:01:13;;;;;;;6.97;3.20;;;;;;;14.63;64.28;101946.53;5103744;28;20122;-58
2022/09/01 04:03:40;;;;;;;5.10;3.50;;;;;;;14.70;64.76;101935.22;5106037;28;20080;-59
2022/09/01 04:06:08;;;;;;;6.10;3.20;;;;;;;14.65;65.02;101936.53;5106011;28;20036;-56
2022/09/01 04:08:33;;;;;;;4.65;3.35;;;;;;;14.60;64.68;101944.19;5104695;28;20054;-57
2022/09/01 04:11:03;;;;;;;3.47;3.17;;;;;;;14.60;64.69;101938.03;5102951;28;20484;-56
2022/09/01 04:13:37;;;;;;;6.63;3.50;;;;;;;14.55;64.97;101938.47;5106293;28;20024;-56
2022/09/01 04:16:09;;;;;;;5.10;3.30;;;;;;;14.52;64.85;101941.50;5105429;28;20493;-57
2022/09/01 04:18:35;;;;;;;4.73;3.27;;;;;;;14.48;65.31;101938.31;5101819;28;20107;-56
2022/09/01 04:21:00;;;;;;;6.65;3.45;;;;;;;14.54;64.94;101939.47;5098572;28;20470;-57
2022/09/01 04:23:28;;;;;;;6.38;3.40;;;;;;;14.45;64.87;101940.47;5099136;28;20092;-58
2022/09/01 04:26:10;;;;;;;4.82;3.20;;;;;;;14.51;65.18;101939.81;5101708;28;20034;-57
2022/09/01 04:28:41;;;;;;;9.18;3.30;;;;;;;14.46;65.47;101940.28;5105142;28;20091;-58
2022/09/01 04:31:16;;;;;;;4.65;3.30;;;;;;;14.49;65.29;101941.78;5103909;28;20074;-56
2022/09/01 04:33:45;;;;;;;6.05;3.25;;;;;;;14.47;65.18;101949.13;5099896;28;20117;-56
2022/09/01 04:36:22;;;;;;;6.07;3.20;;;;;;;14.42;65.42;101943.44;5092934;28;20562;-58
2022/09/01 04:38:53;;;;;;;7.35;3.33;;;;;;;14.45;65.18;101945.81;5101948;28;20032;-57
2022/09/01 04:41:19;;;;;;;6.40;3.20;;;;;;;14.43;65.29;101942.44;5095965;28;20036;-58
2022/09/01 04:43:46;;;;;;;8.35;3.20;;;;;;;14.45;65.09;101951.13;5106613;28;20028;-59
2022/09/01 04:46:13;;;;;;;9.07;3.65;;;;;;;14.45;65.31;101951.13;5102702;28;20038;-58
2022/09/01 04:48:42;;;;;;;6.53;3.30;;;;;;;14.45;64.80;101951.13;5102603;28;20058;-57
2022/09/01 04:51:09;;;;;;;5.22;3.15;;;;;;;14.38;64.95;101949.09;5101073;28;20106;-57
2022/09/01 04:53:38;;;;;;;8.48;3.13;;;;;;;14.40;65.17;101948.94;5104395;28;20031;-56
2022/09/01 04:56:05;;;;;;;4.65;3.20;;;;;;;14.36;65.15;101943.06;5103801;28;20035;-57
2022/09/01 04:58:31;;;;;;;4.13;3.35;;;;;;;14.33;65.06;101947.91;5103922;28;20054;-58
2022/09/01 05:00:59;;;;;;;6.72;3.67;;;;;;;14.27;65.08;101954.72;5084482;28;21915;-58
2022/09/01 05:03:25;;;;;;;7.45;3.58;;;;;;;14.26;64.73;101950.34;5087518;28;20070;-57
2022/09/01 05:05:52;;;;;;;6.95;3.20;;;;;;;14.25;65.08;101951.34;5089929;28;20043;-59
2022/09/01 05:08:22;;;;;;;6.80;3.50;;;;;;;14.12;65.15;101944.63;5103063;28;20054;-56
2022/09/01 05:10:52;;;;;;;6.30;3.30;;;;;;;14.14;65.35;101939.13;5102279;28;20031;-57
2022/09/01 05:13:18;;;;;;;5.03;3.20;;;;;;;14.12;65.36;101955.28;5103366;28;20019;-57
2022/09/01 05:15:46;;;;;;;4.95;3.20;;;;;;;14.18;65.45;101944.97;5102608;28;20036;-56
2022/09/01 05:18:22;;;;;;;7.93;3.30;;;;;;;14.16;65.37;101949.66;5104762;28;20425;-56
2022/09/01 05:20:49;;;;;;;6.55;3.60;;;;;;;14.13;64.80;101950.81;5091660;28;20032;-59
2022/09/01 05:23:18;;;;;;;8.23;3.65;;;;;;;14.12;64.91;101951.81;5102863;28;20280;-57
2022/09/01 05:25:45;;;;;;;7.85;3.55;;;;;;;14.02;65.32;101953.72;5102857;28;20038;-58
2022/09/01 05:28:14;;;;;;;6.57;3.40;;;;;;;14.06;65.23;101953.25;5104648;28;20500;-57
2022/09/01 05:30:40;;;;;;;5.57;3.40;;;;;;;14.06;65.42;101955.09;5102006;28;20032;-56
2022/09/01 05:33:10;;;;;;;5.10;3.70;;;;;;;14.04;65.39;101955.25;5099732;28;20031;-58
2022/09/01 05:35:37;;;;;;;6.15;3.80;;;;;;;14.05;65.24;101956.91;5103055;28;20043;-57
2022/09/01 05:38:03;;;;;;;5.82;3.55;;;;;;;14.10;65.53;101957.28;5102407;28;20046;-57
2022/09/01 05:40:28;;;;;;;6.72;3.60;;;;;;;14.16;65.44;101957.66;5099337;28;20028;-58
2022/09/01 05:42:54;;;;;;;6.03;3.60;;;;;;;14.17;64.95;101959.31;5103231;28;21048;-56
2022/09/01 05:45:23;;;;;;;4.13;3.72;;;;;;;14.13;65.43;101959.63;5090425;28;20040;-58
2022/09/01 05:47:49;;;;;;;6.85;3.63;;;;;;;14.12;65.27;101968.63;5097657;28;20418;-56
2022/09/01 05:50:18;;;;;;;8.50;3.75;;;;;;;14.19;65.06;101957.31;5094997;28;20027;-57
2022/09/01 05:52:46;;;;;;;4.93;3.88;;;;;;;14.16;64.75;101957.66;5096232;28;20047;-57
2022/09/01 05:55:14;;;;;;;6.60;3.40;;;;;;;14.18;65.03;101961.00;5093764;28;20035;-57
2022/09/01 05:57:39;;;;;;;10.15;3.83;;;;;;;14.17;65.00;101964.66;5096064;28;20032;-58
2022/09/01 06:00:12;;;;;;;6.57;3.67;;;;;;;14.13;64.68;101956.94;5094872;28;20046;-57
2022/09/01 06:02:39;;;;;;;8.07;3.60;;;;;;;14.17;64.81;101965.50;5096059;28;20055;-57
2022/09/01 06:05:06;;;;;;;7.35;3.70;;;;;;;14.18;64.49;101967.16;5096481;28;20024;-57
2022/09/01 06:07:32;;;;;;;9.02;3.78;;;;;;;14.21;64.61;101971.34;5098394;28;20044;-58
2022/09/01 06:09:59;;;;;;;9.38;3.65;;;;;;;14.21;64.27;101968.69;5095496;28;20024;-57
2022/09/01 06:12:26;;;;;;;8.18;3.70;;;;;;;14.21;64.70;101966.03;5095807;28;20035;-57
2022/09/01 06:14:54;;;;;;;6.95;3.70;;;;;;;14.22;64.69;101967.69;5097332;28;20028;-57
2022/09/01 06:17:23;;;;;;;11.60;3.88;;;;;;;14.25;65.03;101967.34;5095654;28;20053;-58
2022/09/01 06:19:54;;;;;;;12.18;3.92;;;;;;;14.35;63.82;101970.75;5093343;28;20075;-58
2022/09/01 06:22:19;;;;;;;10.48;3.78;;;;;;;14.34;64.47;101966.41;5093594;28;20078;-59
2022/09/01 06:24:46;;;;;;;10.20;3.60;;;;;;;14.31;63.87;101977.41;5094379;28;20056;-58
2022/09/01 06:27:12;;;;;;;9.15;4.05;;;;;;;14.32;64.71;101979.09;5075285;28;20780;-59
2022/09/01 06:29:38;;;;;;;6.22;3.67;;;;;;;14.34;64.35;101971.75;5097510;28;20051;-59
2022/09/01 06:32:09;;;;;;;10.95;3.70;;;;;;;14.39;64.67;101974.78;5096831;28;20101;-58
2022/09/01 06:34:37;;;;;;;10.88;3.95;;;;;;;14.51;64.10;101971.84;5096365;28;20409;-59
2022/09/01 06:37:02;;;;;;;8.35;3.50;;;;;;;14.54;63.63;101966.16;5095850;28;20099;-59
2022/09/01 06:39:28;;;;;;;9.20;3.60;;;;;;;14.58;63.79;101978.22;5099363;28;20024;-58
2022/09/01 06:41:53;;;;;;;10.38;3.47;;;;;;;14.63;63.71;101975.91;5098454;28;20040;-58
2022/09/01 06:44:21;;;;;;;8.13;3.33;;;;;;;14.69;63.52;101970.91;5099188;28;20028;-59
2022/09/01 06:46:47;;;;;;;8.85;3.40;;;;;;;14.71;63.23;101977.75;5095962;28;20479;-59
2022/09/01 06:49:12;;;;;;;5.93;3.60;;;;;;;14.77;63.45;101976.31;5090810;28;20419;-59
2022/09/01 06:51:38;;;;;;;7.85;3.60;;;;;;;14.84;63.69;101972.00;5095302;28;20028;-59
2022/09/01 06:54:03;;;;;;;5.47;3.70;;;;;;;14.91;64.16;101989.03;5094504;28;20036;-59
2022/09/01 06:56:32;;;;;;;9.90;3.60;;;;;;;14.92;62.88;101972.00;5093181;28;20020;-59
2022/09/01 06:59:00;;;;;;;7.57;3.45;;;;;;;15.01;63.26;101982.72;5091836;28;20120;-58
2022/09/01 07:01:26;;;;;;;10.77;3.80;;;;;;;15.06;63.33;101985.75;5097953;28;20130;-59
2022/09/01 07:03:53;;;;;;;9.10;3.70;;;;;;;15.12;62.75;101985.09;5097277;28;20028;-58
2022/09/01 07:06:26;;;;;;;10.38;3.85;;;;;;;15.13;62.07;101986.75;5096943;28;20907;-59
2022/09/01 07:08:53;;;;;;;;;;;;;;;15.28;61.96;101994.13;5101982;28;20044;-58
2022/09/01 07:11:26;;;;;;;7.85;3.75;;;;;;;15.24;62.21;101988.28;5100818;28;19992;-57
2022/09/01 07:13:53;;;;;;;6.95;3.50;;;;;;;15.32;62.35;101990.97;5102937;28;20024;-57
2022/09/01 07:16:22;;;;;;;10.02;3.50;;;;;;;15.33;62.96;101997.16;5091017;28;20028;-57
2022/09/01 07:18:49;;;;;;;10.77;4.05;;;;;;;15.42;62.17;101996.16;5079811;28;20125;-57
2022/09/01 07:21:15;;;;;;;6.28;3.60;;;;;;;15.51;62.46;101993.50;5096690;28;20472;-57
2022/09/01 07:23:42;;;;;;;11.52;3.90;;;;;;;15.56;62.77;101991.16;5103413;28;20046;-59
2022/09/01 07:26:08;;;;;;;12.27;4.18;;;;;;;15.68;62.70;101994.31;5087935;28;20055;-57
2022/09/01 07:28:35;;;;;;;18.02;4.00;;;;;;;15.80;62.72;101992.16;5102237;28;20134;-59
2022/09/01 07:31:01;;;;;;;11.32;3.88;;;;;;;15.90;62.14;101995.50;5101304;28;20036;-59
2022/09/01 07:33:29;;;;;;;11.25;3.92;;;;;;;16.03;61.71;101986.16;5106360;28;20031;-58
2022/09/01 07:35:56;;;;;;;16.30;3.88;;;;;;;16.13;62.28;101986.78;5103281;28;20083;-57
2022/09/01 07:38:23;;;;;;;6.80;3.30;;;;;;;16.28;60.77;101997.63;5106313;28;20043;-59
2022/09/01 07:40:48;;;;;;;8.45;3.90;;;;;;;16.40;60.84;101998.09;5104060;28;20080;-58
2022/09/01 07:43:24;;;;;;;6.78;4.22;;;;;;;16.48;60.24;101994.56;5105152;28;20597;-58
2022/09/01 07:45:54;;;;;;;11.23;3.47;;;;;;;16.53;60.31;101984.19;5100227;28;20480;-58
2022/09/01 07:48:21;;;;;;;7.50;3.42;;;;;;;16.66;59.75;101991.66;5106132;28;20070;-59
2022/09/01 07:50:49;;;;;;;10.00;4.10;;;;;;;16.66;59.20;101986.28;5105042;28;20097;-58
2022/09/01 07:53:21;;;;;;;8.65;3.90;;;;;;;16.73;59.15;101991.81;5097334;28;20030;-57
2022/09/01 07:55:49;;;;;;;6.55;3.65;;;;;;;16.82;59.14;102001.44;5103678;28;20027;-57
2022/09/01 07:58:14;;;;;;;9.38;3.80;;;;;;;16.85;59.13;102000.28;5097400;28;20040;-58
2022/09/01 08:00:44;;;;;;;10.98;3.78;;;;;;;16.92;59.54;101995.88;5095583;28;20088;-58
2022/09/01 08:03:10;;;;;;;7.85;3.80;;;;;;;16.97;59.04;101988.16;5104294;28;20031;-58
2022/09/01 08:05:36;;;;;;;4.50;3.85;;;;;;;17.05;58.81;101996.19;5096257;28;20031;-59
2022/09/01 08:08:01;;;;;;;10.70;4.00;;;;;;;17.15;59.30;101995.13;5097968;28;20027;-58
2022/09/01 08:10:27;;;;;;;12.20;3.90;;;;;;;17.24;59.02;101998.56;5106182;28;20484;-58
2022/09/01 08:12:53;;;;;;;6.50;3.75;;;;;;;17.37;59.12;101995.31;5101590;28;20126;-57
2022/09/01 08:15:18;;;;;;;7.93;3.63;;;;;;;17.49;58.81;101996.56;5104526;28;20020;-60
2022/09/01 08:17:44;;;;;;;10.48;3.78;;;;;;;17.57;58.60;101999.16;5096082;28;20071;-59
2022/09/01 08:20:10;;;;;;;19.45;4.47;;;;;;;17.66;58.37;101996.44;5095552;28;20118;-58
2022/09/01 08:22:36;;;;;;;12.23;3.97;;;;;;;17.77;58.44;102001.38;5104912;28;20042;-57
2022/09/01 08:25:07;;;;;;;12.18;4.10;;;;;;;17.86;57.49;101996.78;5106262;28;20033;-57
2022/09/01 08:27:35;;;;;;;9.02;4.07;;;;;;;17.92;57.33;101997.88;5087834;28;20416;-58
2022/09/01 08:30:03;;;;;;;5.72;3.72;;;;;;;18.04;57.43;101998.25;5100746;28;20065;-57
2022/09/01 08:32:29;;;;;;;7.50;3.90;;;;;;;18.13;56.96;102000.72;5101320;28;20106;-57
2022/09/01 08:34:55;;;;;;;9.20;3.80;;;;;;;18.19;56.33;101998.31;5102058;28;20578;-56
2022/09/01 08:37:21;;;;;;;8.13;3.80;;;;;;;18.22;56.63;101987.22;5090980;28;20074;-56
2022/09/01 08:39:48;;;;;;;8.63;3.80;;;;;;;18.37;56.96;101988.06;5102321;28;20062;-57
2022/09/01 08:42:43;;;;;;;9.60;3.72;;;;;;;18.48;56.91;101999.34;5101537;28;20047;-56
2022/09/01 08:45:19;;;;;;;6.78;4.07;;;;;;;18.55;56.11;102000.25;5102236;28;20236;-57
2022/09/01 08:47:45;;;;;;;10.55;4.18;;;;;;;18.61;56.02;101985.25;5101809;28;20092;-57
2022/09/01 08:50:11;;;;;;;9.20;4.10;;;;;;;18.68;55.71;101994.22;5102072;28;20031;-57
2022/09/01 08:52:43;;;;;;;8.15;4.13;;;;;;;18.76;55.84;102001.34;5101851;28;20450;-59
2022/09/01 08:55:24;;;;;;;9.82;3.60;;;;;;;18.85;55.94;101996.69;5100004;28;20055;-57
2022/09/01 08:57:51;;;;;;;7.30;3.80;;;;;;;18.89;56.24;101996.13;5095428;28;20496;-56
2022/09/01 09:00:19;;;;;;;9.68;3.90;;;;;;;18.99;55.19;101995.00;5101763;28;20028;-57
2022/09/01 09:02:57;;;;;;;10.90;3.92;;;;;;;19.08;55.00;101988.50;5100959;28;20452;-56
2022/09/01 09:05:47;;;;;;;6.85;3.58;;;;;;;19.16;55.27;101984.88;5101683;28;20031;-57
2022/09/01 09:08:21;;;;;;;6.72;3.80;;;;;;;19.26;54.67;101989.94;5101791;28;20083;-58
2022/09/01 09:11:02;;;;;;;7.65;4.00;;;;;;;19.35;53.89;101986.09;5100963;28;20492;-57
2022/09/01 09:13:38;;;;;;;6.82;3.85;;;;;;;19.43;53.73;101985.97;5101398;28;20032;-57
2022/09/01 09:16:10;;;;;;;7.80;3.60;;;;;;;19.45;54.42;101983.09;5101462;28;20080;-58
2022/09/01 09:18:47;;;;;;;9.55;3.50;;;;;;;19.57;53.91;101980.69;5101551;28;20054;-59
2022/09/01 09:21:19;;;;;;;9.07;3.60;;;;;;;19.63;53.02;101977.22;5101357;28;20031;-57
2022/09/01 09:23:49;;;;;;;8.17;3.40;;;;;;;19.68;53.80;101971.28;5101097;28;20561;-57
2022/09/01 09:26:19;;;;;;;8.63;3.70;;;;;;;19.80;52.49;101979.63;5100225;28;20301;-58
2022/09/01 09:28:46;;;;;;;10.38;3.45;;;;;;;19.92;52.22;101978.06;5101003;28;20122;-58
2022/09/01 09:31:42;;;;;;;8.00;3.60;;;;;;;19.97;52.22;101975.66;5100639;28;20052;-57
2022/09/01 09:34:31;;;;;;;7.15;3.38;;;;;;;19.99;53.16;101970.91;5100779;28;20051;-57
2022/09/01 09:37:00;;;;;;;6.78;3.30;;;;;;;20.09;51.22;101967.03;5101085;28;20031;-58
2022/09/01 09:39:25;;;;;;;7.43;3.30;;;;;;;20.08;50.58;101965.38;5101130;28;20044;-56
2022/09/01 09:42:07;;;;;;;9.63;2.90;;;;;;;20.15;51.80;101969.78;5100741;28;20032;-57
2022/09/01 09:44:43;;;;;;;7.57;2.83;;;;;;;20.27;50.55;101959.25;5100708;28;20513;-56
2022/09/01 09:47:09;;;;;;;8.70;3.00;;;;;;;20.40;50.41;101957.66;5097569;28;20051;-58
2022/09/01 09:49:35;;;;;;;10.02;3.20;;;;;;;20.39;48.99;101950.63;5100991;28;20058;-58
2022/09/01 09:52:00;;;;;;;4.90;2.83;;;;;;;20.47;49.60;101952.31;5100886;28;20028;-57
2022/09/01 09:54:28;;;;;;;8.60;2.83;;;;;;;20.55;48.78;101950.28;5099890;28;20038;-58
2022/09/01 09:57:13;;;;;;;4.80;2.88;;;;;;;20.63;49.30;101946.56;5100650;28;20333;-57
2022/09/01 09:59:49;;;;;;;8.75;2.85;;;;;;;20.76;48.38;101947.63;5099086;28;20024;-57
2022/09/01 10:02:21;;;;;;;7.32;2.70;;;;;;;20.92;47.76;101946.47;5093241;28;20047;-57
2022/09/01 10:04:46;;;;;;;7.95;2.70;;;;;;;20.94;46.60;101942.53;5099235;28;20384;-57
2022/09/01 10:07:34;;;;;;;6.00;2.53;;;;;;;21.05;47.06;101938.41;5100487;28;20032;-59
2022/09/01 10:10:25;;;;;;;6.97;2.47;;;;;;;21.12;46.19;101941.13;5100383;28;20036;-57
2022/09/01 10:12:52;;;;;;;5.50;2.20;;;;;;;21.23;46.07;101936.97;5099702;28;20023;-56
2022/09/01 10:15:23;;;;;;;7.28;2.20;;;;;;;21.43;44.01;101930.75;5100507;28;20476;-57
2022/09/01 10:17:51;;;;;;;2.25;1.58;;;;;;;21.49;40.42;101938.84;5099291;28;20080;-57
2022/09/01 10:20:25;;;;;;;4.90;1.80;;;;;;;21.59;40.82;101933.03;5100247;28;20036;-57
2022/09/01 10:22:51;;;;;;;4.68;2.00;;;;;;;21.72;40.04;101920.59;5100532;28;20036;-55
2022/09/01 10:25:20;;;;;;;4.07;1.85;;;;;;;21.80;40.55;101933.84;5100440;28;20031;-57
2022/09/01 10:27:51;;;;;;;5.30;2.00;;;;;;;21.93;40.28;101937.56;5100739;28;20028;-57
2022/09/01 10:30:18;;;;;;;5.45;2.03;;;;;;;21.97;40.32;101920.75;5100371;28;20032;-58
2022/09/01 10:32:57;;;;;;;4.03;2.00;;;;;;;21.99;37.76;101918.66;5100444;28;20035;-57
2022/09/01 10:35:30;;;;;;;5.50;2.05;;;;;;;22.04;39.33;101926.13;5100077;28;20061;-58
2022/09/01 10:37:58;;;;;;;5.38;2.03;;;;;;;22.15;39.39;101925.47;5100565;28;20534;-57
2022/09/01 10:40:27;;;;;;;6.00;2.05;;;;;;;22.10;39.73;101922.56;5098900;28;20092;-58
2022/09/01 10:42:55;;;;;;;4.22;2.10;;;;;;;22.26;39.25;101926.66;5092988;28;20035;-57
2022/09/01 10:45:36;;;;;;;4.32;2.13;;;;;;;22.33;39.47;101920.41;5100273;28;20063;-56
2022/09/01 10:48:24;;;;;;;3.05;1.90;;;;;;;22.51;39.17;101922.41;5100219;28;20092;-57
2022/09/01 10:51:11;;;;;;;3.75;1.80;;;;;;;22.58;37.94;101923.22;5100111;28;20044;-57
2022/09/01 10:53:39;;;;;;;4.85;2.00;;;;;;;22.59;37.18;101929.47;5099631;28;20054;-57
2022/09/01 10:56:07;;;;;;;2.95;1.90;;;;;;;22.59;37.53;101919.47;5100285;28;20043;-56
2022/09/01 10:58:45;;;;;;;3.30;1.90;;;;;;;22.67;37.23;101919.25;5091623;28;20067;-57
2022/09/01 11:01:10;;;;;;;4.13;2.00;;;;;;;22.75;36.75;101922.72;5104384;28;20028;-58
2022/09/01 11:03:37;;;;;;;2.45;2.10;;;;;;;22.77;36.19;101916.06;5102338;28;20335;-58
2022/09/01 11:06:07;;;;;;;6.18;1.95;;;;;;;22.76;37.05;101921.69;5102721;28;20506;-59
2022/09/01 11:08:32;;;;;;;3.33;2.00;;;;;;;22.79;35.46;101918.56;5103530;28;20038;-58
2022/09/01 11:11:04;;;;;;;2.47;1.80;;;;;;;22.85;36.68;101912.28;5103763;28;20054;-57
2022/09/01 11:13:48;;;;;;;2.60;1.90;;;;;;;22.74;37.49;101910.28;5093991;28;20312;-57
2022/09/01 11:16:37;;;;;;;5.68;2.00;;;;;;;22.82;36.96;101910.84;5102355;28;20027;-57
2022/09/01 11:19:15;;;;;;;7.05;2.25;;;;;;;22.84;36.95;101913.31;5103670;28;20370;-56
2022/09/01 11:21:41;;;;;;;4.32;2.20;;;;;;;22.85;35.72;101914.97;5103655;28;20063;-58
2022/09/01 11:24:37;;;;;;;6.75;2.00;;;;;;;22.87;36.77;101912.88;5103714;28;20027;-57
2022/09/01 11:27:05;;;;;;;4.28;1.83;;;;;;;22.91;36.22;101905.16;5102810;28;20106;-58
2022/09/01 11:29:51;;;;;;;3.95;2.00;;;;;;;22.85;36.03;101901.47;5103316;28;20043;-57
2022/09/01 11:32:17;;;;;;;6.13;2.20;;;;;;;22.94;36.41;101902.84;5102399;28;20030;-57
2022/09/01 11:34:44;;;;;;;5.22;1.85;;;;;;;23.01;36.20;101899.25;5103832;28;20023;-58
2022/09/01 11:37:20;;;;;;;4.40;1.90;;;;;;;23.13;35.86;101892.09;5103209;28;20063;-57